sensor_id;sensor_type;location;lat;lon;timestamp;temperature;humidity
20795;DHT22;28087;-33.874;151.240;2023-01-20T01:54:23;21.10;99.90
20795;DHT22;28087;-33.874;151.240;2023-01-20T01:59:39;21.10;99.90
20795;DHT22;28087;-33.874;151.240;2023-01-20T03:06:46;20.90;99.90
20795;DHT22;28087;-33.874;151.240;2023-01-20T03:09:24;21.00;99.90
20795;DHT22;28087;-33.874;151.240;2023-01-20T03:12:06;21.10;99.90
20795;DHT22;28087;-33.874;151.240;2023-01-20T03:17:19;21.00;99.90
20795;DHT22;28087;-33.874;151.240;2023-01-20T03:19:55;21.10;99.90
20795;DHT22;28087;-33.874;151.240;2023-01-20T03:22:33;21.20;99.90
20795;DHT22;28087;-33.874;151.240;2023-01-20T03:25:10;21.20;99.90
20795;DHT22;28087;-33.874;151.240;2023-01-20T03:27:47;21.20;99.90
20795;DHT22;28087;-33.874;151.240;2023-01-20T03:30:23;21.20;99.90
20795;DHT22;28087;-33.874;151.240;2023-01-20T03:32:58;21.30;99.90
20795;DHT22;28087;-33.874;151.240;2023-01-20T03:35:34;21.30;99.90
20795;DHT22;28087;-33.874;151.240;2023-01-20T03:38:14;21.30;99.90
20795;DHT22;28087;-33.874;151.240;2023-01-20T03:40:56;21.30;99.90
20795;DHT22;28087;-33.874;151.240;2023-01-20T03:43:41;21.30;99.90
20795;DHT22;28087;-33.874;151.240;2023-01-20T03:46:23;21.30;99.90
20795;DHT22;28087;-33.874;151.240;2023-01-20T03:49:06;21.40;99.90
20795;DHT22;28087;-33.874;151.240;2023-01-20T03:51:50;21.30;99.90
20795;DHT22;28087;-33.874;151.240;2023-01-20T03:54:35;21.20;99.90
20795;DHT22;28087;-33.874;151.240;2023-01-20T03:57:17;21.20;99.90
20795;DHT22;28087;-33.874;151.240;2023-01-20T03:59:54;21.20;99.90
20795;DHT22;28087;-33.874;151.240;2023-01-20T04:02:40;21.10;99.90
20795;DHT22;28087;-33.874;151.240;2023-01-20T04:05:16;21.00;99.90
20795;DHT22;28087;-33.874;151.240;2023-01-20T04:07:52;21.10;99.90
20795;DHT22;28087;-33.874;151.240;2023-01-20T04:10:33;21.00;99.90
20795;DHT22;28087;-33.874;151.240;2023-01-20T04:13:09;21.00;99.90
20795;DHT22;28087;-33.874;151.240;2023-01-20T04:15:45;21.00;99.90
20795;DHT22;28087;-33.874;151.240;2023-01-20T04:18:22;21.10;99.90
20795;DHT22;28087;-33.874;151.240;2023-01-20T04:21:00;21.20;99.90
20795;DHT22;28087;-33.874;151.240;2023-01-20T04:23:38;21.20;99.90
20795;DHT22;28087;-33.874;151.240;2023-01-20T04:26:16;21.20;99.90
20795;DHT22;28087;-33.874;151.240;2023-01-20T04:28:52;21.30;99.90
20795;DHT22;28087;-33.874;151.240;2023-01-20T04:31:27;21.40;99.90
20795;DHT22;28087;-33.874;151.240;2023-01-20T04:34:03;21.40;99.90
20795;DHT22;28087;-33.874;151.240;2023-01-20T04:36:39;21.40;99.90
20795;DHT22;28087;-33.874;151.240;2023-01-20T04:39:15;21.40;99.90
20795;DHT22;28087;-33.874;151.240;2023-01-20T04:41:53;21.30;99.90
20795;DHT22;28087;-33.874;151.240;2023-01-20T04:44:28;21.40;99.90
20795;DHT22;28087;-33.874;151.240;2023-01-20T04:47:04;21.40;99.90
20795;DHT22;28087;-33.874;151.240;2023-01-20T04:49:40;21.40;99.90
20795;DHT22;28087;-33.874;151.240;2023-01-20T04:52:16;21.40;99.90
20795;DHT22;28087;-33.874;151.240;2023-01-20T04:54:51;21.30;99.90
20795;DHT22;28087;-33.874;151.240;2023-01-20T04:57:29;21.30;99.90
20795;DHT22;28087;-33.874;151.240;2023-01-20T05:00:06;21.20;99.90
20795;DHT22;28087;-33.874;151.240;2023-01-20T05:02:42;21.30;99.90
20795;DHT22;28087;-33.874;151.240;2023-01-20T05:05:18;21.30;99.90
20795;DHT22;28087;-33.874;151.240;2023-01-20T05:07:53;21.30;99.90
20795;DHT22;28087;-33.874;151.240;2023-01-20T05:10:31;21.40;99.90
20795;DHT22;28087;-33.874;151.240;2023-01-20T05:13:10;21.40;99.90
20795;DHT22;28087;-33.874;151.240;2023-01-20T05:15:45;21.40;99.90
20795;DHT22;28087;-33.874;151.240;2023-01-20T05:18:21;21.60;99.90
20795;DHT22;28087;-33.874;151.240;2023-01-20T05:20:57;21.60;99.90
20795;DHT22;28087;-33.874;151.240;2023-01-20T05:23:33;21.70;99.90
20795;DHT22;28087;-33.874;151.240;2023-01-20T05:26:08;21.70;99.90
20795;DHT22;28087;-33.874;151.240;2023-01-20T05:28:47;21.70;99.90
20795;DHT22;28087;-33.874;151.240;2023-01-20T05:31:23;21.70;99.90
20795;DHT22;28087;-33.874;151.240;2023-01-20T05:34:01;21.80;99.90
20795;DHT22;28087;-33.874;151.240;2023-01-20T05:36:37;21.90;99.90
20795;DHT22;28087;-33.874;151.240;2023-01-20T05:39:12;21.80;99.90
20795;DHT22;28087;-33.874;151.240;2023-01-20T05:41:47;21.80;99.90
20795;DHT22;28087;-33.874;151.240;2023-01-20T05:44:25;21.70;99.90
20795;DHT22;28087;-33.874;151.240;2023-01-20T05:47:00;21.70;99.90
20795;DHT22;28087;-33.874;151.240;2023-01-20T05:49:35;21.70;99.90
20795;DHT22;28087;-33.874;151.240;2023-01-20T05:52:11;21.70;99.90
20795;DHT22;28087;-33.874;151.240;2023-01-20T05:54:46;21.70;99.90
20795;DHT22;28087;-33.874;151.240;2023-01-20T05:57:24;21.60;99.90
20795;DHT22;28087;-33.874;151.240;2023-01-20T06:00:02;21.70;99.90
20795;DHT22;28087;-33.874;151.240;2023-01-20T06:02:39;21.70;99.90
20795;DHT22;28087;-33.874;151.240;2023-01-20T06:05:15;21.70;99.90
20795;DHT22;28087;-33.874;151.240;2023-01-20T06:07:50;21.70;99.90
20795;DHT22;28087;-33.874;151.240;2023-01-20T06:10:26;21.60;99.90
20795;DHT22;28087;-33.874;151.240;2023-01-20T06:13:01;21.60;99.90
20795;DHT22;28087;-33.874;151.240;2023-01-20T06:15:40;21.60;99.90
20795;DHT22;28087;-33.874;151.240;2023-01-20T06:18:15;21.60;99.90
20795;DHT22;28087;-33.874;151.240;2023-01-20T06:20:50;21.60;99.90
20795;DHT22;28087;-33.874;151.240;2023-01-20T06:23:26;21.60;99.90
20795;DHT22;28087;-33.874;151.240;2023-01-20T06:26:04;21.60;99.90
20795;DHT22;28087;-33.874;151.240;2023-01-20T06:28:40;21.60;99.90
20795;DHT22;28087;-33.874;151.240;2023-01-20T06:31:17;21.60;99.90
20795;DHT22;28087;-33.874;151.240;2023-01-20T06:33:53;21.60;99.90
20795;DHT22;28087;-33.874;151.240;2023-01-20T06:36:29;21.60;99.90
20795;DHT22;28087;-33.874;151.240;2023-01-20T06:39:04;21.60;99.90
20795;DHT22;28087;-33.874;151.240;2023-01-20T06:41:40;21.60;99.90
20795;DHT22;28087;-33.874;151.240;2023-01-20T06:44:16;21.50;99.90
20795;DHT22;28087;-33.874;151.240;2023-01-20T06:46:55;21.60;99.90
20795;DHT22;28087;-33.874;151.240;2023-01-20T06:49:30;21.50;99.90
20795;DHT22;28087;-33.874;151.240;2023-01-20T06:54:43;21.50;99.90
20795;DHT22;28087;-33.874;151.240;2023-01-20T06:57:19;21.60;99.90
20795;DHT22;28087;-33.874;151.240;2023-01-20T06:59:54;21.60;99.90
20795;DHT22;28087;-33.874;151.240;2023-01-20T07:02:34;21.60;99.90
20795;DHT22;28087;-33.874;151.240;2023-01-20T07:05:10;21.50;99.90
20795;DHT22;28087;-33.874;151.240;2023-01-20T07:07:47;21.60;99.90
20795;DHT22;28087;-33.874;151.240;2023-01-20T07:10:22;21.60;99.90
20795;DHT22;28087;-33.874;151.240;2023-01-20T07:12:58;21.60;99.90
20795;DHT22;28087;-33.874;151.240;2023-01-20T12:22:58;21.10;99.90
20795;DHT22;28087;-33.874;151.240;2023-01-20T12:25:38;21.10;99.90
20795;DHT22;28087;-33.874;151.240;2023-01-20T12:28:22;21.10;99.90
20795;DHT22;28087;-33.874;151.240;2023-01-20T12:30:59;21.10;99.90
20795;DHT22;28087;-33.874;151.240;2023-01-20T12:50:19;21.00;99.90
20795;DHT22;28087;-33.874;151.240;2023-01-20T20:11:04;21.00;99.90
20795;DHT22;28087;-33.874;151.240;2023-01-20T20:13:45;21.00;99.90
20795;DHT22;28087;-33.874;151.240;2023-01-20T20:16:20;21.00;99.90
20795;DHT22;28087;-33.874;151.240;2023-01-20T20:18:57;21.00;99.90
20795;DHT22;28087;-33.874;151.240;2023-01-20T20:21:34;21.10;99.90
20795;DHT22;28087;-33.874;151.240;2023-01-20T20:24:11;21.20;99.90
20795;DHT22;28087;-33.874;151.240;2023-01-20T20:26:47;21.30;99.90
20795;DHT22;28087;-33.874;151.240;2023-01-20T20:29:23;21.30;99.90
20795;DHT22;28087;-33.874;151.240;2023-01-20T20:31:59;21.30;99.90
20795;DHT22;28087;-33.874;151.240;2023-01-20T20:34:36;21.40;99.90
20795;DHT22;28087;-33.874;151.240;2023-01-20T20:37:11;21.50;99.90
20795;DHT22;28087;-33.874;151.240;2023-01-20T20:39:46;21.60;99.90
20795;DHT22;28087;-33.874;151.240;2023-01-20T20:42:22;21.70;99.90
20795;DHT22;28087;-33.874;151.240;2023-01-20T20:44:59;21.60;99.90
20795;DHT22;28087;-33.874;151.240;2023-01-20T20:47:34;21.70;99.90
20795;DHT22;28087;-33.874;151.240;2023-01-20T20:50:12;21.80;99.90
20795;DHT22;28087;-33.874;151.240;2023-01-20T20:52:48;21.60;99.90
20795;DHT22;28087;-33.874;151.240;2023-01-20T20:55:24;21.60;99.90
20795;DHT22;28087;-33.874;151.240;2023-01-20T20:58:00;21.70;99.90
20795;DHT22;28087;-33.874;151.240;2023-01-20T21:00:36;21.80;99.90
20795;DHT22;28087;-33.874;151.240;2023-01-20T21:03:12;21.80;99.90
20795;DHT22;28087;-33.874;151.240;2023-01-20T21:05:50;21.90;99.90
20795;DHT22;28087;-33.874;151.240;2023-01-20T21:08:25;21.90;99.90
20795;DHT22;28087;-33.874;151.240;2023-01-20T21:11:02;22.00;99.90
20795;DHT22;28087;-33.874;151.240;2023-01-20T21:13:38;22.10;99.90
20795;DHT22;28087;-33.874;151.240;2023-01-20T21:16:15;22.20;99.90
20795;DHT22;28087;-33.874;151.240;2023-01-20T21:18:54;22.30;99.90
20795;DHT22;28087;-33.874;151.240;2023-01-20T21:21:31;22.30;99.90
20795;DHT22;28087;-33.874;151.240;2023-01-20T21:24:08;22.40;99.90
20795;DHT22;28087;-33.874;151.240;2023-01-20T21:26:45;22.40;99.90
20795;DHT22;28087;-33.874;151.240;2023-01-20T21:29:21;22.40;99.90
20795;DHT22;28087;-33.874;151.240;2023-01-20T21:32:01;22.40;99.90
20795;DHT22;28087;-33.874;151.240;2023-01-20T21:34:40;22.50;99.90
20795;DHT22;28087;-33.874;151.240;2023-01-20T21:37:22;22.60;99.90
20795;DHT22;28087;-33.874;151.240;2023-01-20T21:40:00;22.70;99.90
20795;DHT22;28087;-33.874;151.240;2023-01-20T21:42:36;22.70;99.90
20795;DHT22;28087;-33.874;151.240;2023-01-20T21:45:12;22.80;99.90
20795;DHT22;28087;-33.874;151.240;2023-01-20T21:47:46;22.80;99.90
20795;DHT22;28087;-33.874;151.240;2023-01-20T21:50:22;22.80;99.90
20795;DHT22;28087;-33.874;151.240;2023-01-20T21:53:16;22.90;99.90
20795;DHT22;28087;-33.874;151.240;2023-01-20T21:55:53;22.90;99.90
20795;DHT22;28087;-33.874;151.240;2023-01-20T21:58:28;23.10;99.90
20795;DHT22;28087;-33.874;151.240;2023-01-20T22:01:03;23.10;99.90
20795;DHT22;28087;-33.874;151.240;2023-01-20T22:03:40;23.20;99.90
20795;DHT22;28087;-33.874;151.240;2023-01-20T22:06:19;23.20;99.90
20795;DHT22;28087;-33.874;151.240;2023-01-20T22:08:57;23.30;99.90
20795;DHT22;28087;-33.874;151.240;2023-01-20T22:11:32;23.30;99.90
20795;DHT22;28087;-33.874;151.240;2023-01-20T22:14:07;23.30;99.90
20795;DHT22;28087;-33.874;151.240;2023-01-20T22:16:45;23.10;99.90
20795;DHT22;28087;-33.874;151.240;2023-01-20T22:19:21;23.00;99.90
20795;DHT22;28087;-33.874;151.240;2023-01-20T22:21:58;23.00;99.90
20795;DHT22;28087;-33.874;151.240;2023-01-20T22:24:35;23.00;99.90
20795;DHT22;28087;-33.874;151.240;2023-01-20T22:27:12;23.00;99.90
20795;DHT22;28087;-33.874;151.240;2023-01-20T22:29:48;23.00;99.90
20795;DHT22;28087;-33.874;151.240;2023-01-20T22:32:26;22.90;99.90
20795;DHT22;28087;-33.874;151.240;2023-01-20T22:35:03;22.90;99.90
20795;DHT22;28087;-33.874;151.240;2023-01-20T22:37:43;22.80;99.90
20795;DHT22;28087;-33.874;151.240;2023-01-20T22:40:20;22.70;99.90
20795;DHT22;28087;-33.874;151.240;2023-01-20T22:42:57;22.70;99.90
20795;DHT22;28087;-33.874;151.240;2023-01-20T22:45:33;22.70;99.90
20795;DHT22;28087;-33.874;151.240;2023-01-20T22:48:08;22.70;99.90
20795;DHT22;28087;-33.874;151.240;2023-01-20T22:50:45;22.70;99.90
20795;DHT22;28087;-33.874;151.240;2023-01-20T22:53:24;22.70;99.90
20795;DHT22;28087;-33.874;151.240;2023-01-20T22:56:05;22.70;99.90
20795;DHT22;28087;-33.874;151.240;2023-01-20T22:58:42;22.70;99.90
20795;DHT22;28087;-33.874;151.240;2023-01-20T23:01:19;22.70;99.90
20795;DHT22;28087;-33.874;151.240;2023-01-20T23:03:55;22.70;99.90
20795;DHT22;28087;-33.874;151.240;2023-01-20T23:06:34;22.70;99.90
20795;DHT22;28087;-33.874;151.240;2023-01-20T23:09:12;22.70;99.90
20795;DHT22;28087;-33.874;151.240;2023-01-20T23:11:50;22.70;99.90
20795;DHT22;28087;-33.874;151.240;2023-01-20T23:14:28;22.80;99.90
20795;DHT22;28087;-33.874;151.240;2023-01-20T23:17:21;22.90;99.90
20795;DHT22;28087;-33.874;151.240;2023-01-20T23:19:58;22.90;99.90
20795;DHT22;28087;-33.874;151.240;2023-01-20T23:22:35;22.90;99.90
20795;DHT22;28087;-33.874;151.240;2023-01-20T23:25:11;22.80;99.90
20795;DHT22;28087;-33.874;151.240;2023-01-20T23:27:48;22.80;99.90
20795;DHT22;28087;-33.874;151.240;2023-01-20T23:30:24;22.80;99.90
20795;DHT22;28087;-33.874;151.240;2023-01-20T23:33:00;22.80;99.90
20795;DHT22;28087;-33.874;151.240;2023-01-20T23:35:35;22.80;99.90
20795;DHT22;28087;-33.874;151.240;2023-01-20T23:38:11;22.90;99.90
20795;DHT22;28087;-33.874;151.240;2023-01-20T23:40:48;23.00;99.90
20795;DHT22;28087;-33.874;151.240;2023-01-20T23:43:27;23.10;99.90
20795;DHT22;28087;-33.874;151.240;2023-01-20T23:46:04;23.00;99.90
20795;DHT22;28087;-33.874;151.240;2023-01-20T23:48:43;23.00;99.90
20795;DHT22;28087;-33.874;151.240;2023-01-20T23:51:19;23.00;99.90
20795;DHT22;28087;-33.874;151.240;2023-01-20T23:53:55;23.00;99.90
20795;DHT22;28087;-33.874;151.240;2023-01-20T23:56:30;22.90;99.90
20795;DHT22;28087;-33.874;151.240;2023-01-20T23:59:09;22.90;99.90
